sensor_id;sensor_type;location;lat;lon;timestamp;P1;durP1;ratioP1;P2;durP2;ratioP2
23868;SDS011;12115;47.128;15.422;2022-11-03T00:01:43;4.45;;;2.20;;
23868;SDS011;12115;47.128;15.422;2022-11-03T00:04:19;5.35;;;2.70;;
23868;SDS011;12115;47.128;15.422;2022-11-03T00:06:51;4.05;;;2.67;;
23868;SDS011;12115;47.128;15.422;2022-11-03T00:09:27;3.42;;;2.28;;
23868;SDS011;12115;47.128;15.422;2022-11-03T00:12:04;3.95;;;2.78;;
23868;SDS011;12115;47.128;15.422;2022-11-03T00:14:34;4.30;;;3.15;;
23868;SDS011;12115;47.128;15.422;2022-11-03T00:17:08;6.38;;;3.70;;
23868;SDS011;12115;47.128;15.422;2022-11-03T00:19:42;7.43;;;3.80;;
23868;SDS011;12115;47.128;15.422;2022-11-03T00:22:15;5.00;;;3.20;;
23868;SDS011;12115;47.128;15.422;2022-11-03T00:24:44;5.13;;;3.60;;
23868;SDS011;12115;47.128;15.422;2022-11-03T00:27:16;4.47;;;3.35;;
23868;SDS011;12115;47.128;15.422;2022-11-03T00:29:50;6.00;;;3.77;;
23868;SDS011;12115;47.128;15.422;2022-11-03T00:32:20;6.20;;;3.97;;
23868;SDS011;12115;47.128;15.422;2022-11-03T00:34:51;8.13;;;4.40;;
23868;SDS011;12115;47.128;15.422;2022-11-03T00:37:21;5.83;;;3.80;;
23868;SDS011;12115;47.128;15.422;2022-11-03T00:39:53;6.93;;;4.57;;
23868;SDS011;12115;47.128;15.422;2022-11-03T00:42:28;7.55;;;4.55;;
23868;SDS011;12115;47.128;15.422;2022-11-03T00:45:01;4.68;;;3.95;;
23868;SDS011;12115;47.128;15.422;2022-11-03T00:47:31;7.90;;;4.55;;
23868;SDS011;12115;47.128;15.422;2022-11-03T00:50:33;5.72;;;4.13;;
23868;SDS011;12115;47.128;15.422;2022-11-03T00:53:29;7.25;;;4.32;;
23868;SDS011;12115;47.128;15.422;2022-11-03T00:56:03;5.57;;;4.15;;
23868;SDS011;12115;47.128;15.422;2022-11-03T01:01:05;6.80;;;4.15;;
23868;SDS011;12115;47.128;15.422;2022-11-03T01:03:48;6.43;;;4.78;;
23868;SDS011;12115;47.128;15.422;2022-11-03T01:06:39;6.88;;;4.40;;
23868;SDS011;12115;47.128;15.422;2022-11-03T01:12:30;8.07;;;4.43;;
23868;SDS011;12115;47.128;15.422;2022-11-03T01:14:57;6.75;;;3.67;;
23868;SDS011;12115;47.128;15.422;2022-11-03T01:17:25;5.45;;;3.83;;
23868;SDS011;12115;47.128;15.422;2022-11-03T01:19:54;7.75;;;4.00;;
23868;SDS011;12115;47.128;15.422;2022-11-03T01:22:22;6.22;;;4.18;;
23868;SDS011;12115;47.128;15.422;2022-11-03T01:24:50;5.53;;;4.10;;
23868;SDS011;12115;47.128;15.422;2022-11-03T01:27:18;5.78;;;3.33;;
23868;SDS011;12115;47.128;15.422;2022-11-03T01:29:46;7.50;;;5.90;;
23868;SDS011;12115;47.128;15.422;2022-11-03T01:32:13;8.75;;;5.00;;
23868;SDS011;12115;47.128;15.422;2022-11-03T01:34:40;8.73;;;4.82;;
23868;SDS011;12115;47.128;15.422;2022-11-03T01:37:07;6.35;;;4.72;;
23868;SDS011;12115;47.128;15.422;2022-11-03T01:39:34;8.77;;;5.38;;
23868;SDS011;12115;47.128;15.422;2022-11-03T01:42:01;8.52;;;4.97;;
23868;SDS011;12115;47.128;15.422;2022-11-03T01:44:30;6.13;;;4.03;;
23868;SDS011;12115;47.128;15.422;2022-11-03T01:47:08;6.90;;;4.35;;
23868;SDS011;12115;47.128;15.422;2022-11-03T01:52:09;6.95;;;4.07;;
23868;SDS011;12115;47.128;15.422;2022-11-03T01:55:06;5.57;;;3.80;;
23868;SDS011;12115;47.128;15.422;2022-11-03T01:57:40;6.32;;;3.72;;
23868;SDS011;12115;47.128;15.422;2022-11-03T02:00:15;8.05;;;5.68;;
23868;SDS011;12115;47.128;15.422;2022-11-03T02:02:42;7.25;;;5.43;;
23868;SDS011;12115;47.128;15.422;2022-11-03T02:05:10;11.80;;;5.72;;
23868;SDS011;12115;47.128;15.422;2022-11-03T02:07:41;8.88;;;5.18;;
23868;SDS011;12115;47.128;15.422;2022-11-03T02:10:22;11.05;;;6.28;;
23868;SDS011;12115;47.128;15.422;2022-11-03T02:12:50;7.60;;;5.95;;
23868;SDS011;12115;47.128;15.422;2022-11-03T02:15:18;9.10;;;6.80;;
23868;SDS011;12115;47.128;15.422;2022-11-03T02:17:48;7.35;;;5.57;;
23868;SDS011;12115;47.128;15.422;2022-11-03T02:20:21;11.43;;;7.70;;
23868;SDS011;12115;47.128;15.422;2022-11-03T02:22:56;10.30;;;7.10;;
23868;SDS011;12115;47.128;15.422;2022-11-03T02:27:58;12.02;;;8.88;;
23868;SDS011;12115;47.128;15.422;2022-11-03T02:30:26;11.93;;;8.05;;
23868;SDS011;12115;47.128;15.422;2022-11-03T02:33:05;9.02;;;6.72;;
23868;SDS011;12115;47.128;15.422;2022-11-03T02:35:50;12.18;;;8.30;;
23868;SDS011;12115;47.128;15.422;2022-11-03T02:38:46;13.20;;;9.10;;
23868;SDS011;12115;47.128;15.422;2022-11-03T02:41:28;15.10;;;9.27;;
23868;SDS011;12115;47.128;15.422;2022-11-03T02:43:59;11.30;;;9.23;;
23868;SDS011;12115;47.128;15.422;2022-11-03T02:46:28;11.88;;;9.70;;
23868;SDS011;12115;47.128;15.422;2022-11-03T02:48:57;12.60;;;8.52;;
23868;SDS011;12115;47.128;15.422;2022-11-03T02:51:24;15.30;;;9.35;;
23868;SDS011;12115;47.128;15.422;2022-11-03T02:56:48;14.35;;;9.38;;
23868;SDS011;12115;47.128;15.422;2022-11-03T02:59:20;14.15;;;9.73;;
23868;SDS011;12115;47.128;15.422;2022-11-03T03:01:54;13.45;;;10.63;;
23868;SDS011;12115;47.128;15.422;2022-11-03T03:04:35;13.82;;;9.48;;
23868;SDS011;12115;47.128;15.422;2022-11-03T03:07:05;13.75;;;10.07;;
23868;SDS011;12115;47.128;15.422;2022-11-03T03:09:37;15.07;;;10.48;;
23868;SDS011;12115;47.128;15.422;2022-11-03T03:12:09;16.50;;;10.02;;
23868;SDS011;12115;47.128;15.422;2022-11-03T03:14:38;17.15;;;9.55;;
23868;SDS011;12115;47.128;15.422;2022-11-03T03:17:18;12.27;;;9.68;;
23868;SDS011;12115;47.128;15.422;2022-11-03T03:20:15;12.30;;;8.88;;
23868;SDS011;12115;47.128;15.422;2022-11-03T03:22:58;12.48;;;8.60;;
23868;SDS011;12115;47.128;15.422;2022-11-03T03:25:56;10.82;;;6.90;;
23868;SDS011;12115;47.128;15.422;2022-11-03T03:28:46;10.90;;;6.85;;
23868;SDS011;12115;47.128;15.422;2022-11-03T03:31:19;12.77;;;7.35;;
23868;SDS011;12115;47.128;15.422;2022-11-03T03:33:57;13.85;;;7.15;;
23868;SDS011;12115;47.128;15.422;2022-11-03T03:36:56;12.77;;;7.70;;
23868;SDS011;12115;47.128;15.422;2022-11-03T03:39:32;10.30;;;7.50;;
23868;SDS011;12115;47.128;15.422;2022-11-03T03:42:11;15.52;;;8.77;;
23868;SDS011;12115;47.128;15.422;2022-11-03T03:44:52;12.32;;;7.95;;
23868;SDS011;12115;47.128;15.422;2022-11-03T03:47:22;12.98;;;8.50;;
23868;SDS011;12115;47.128;15.422;2022-11-03T03:49:53;15.48;;;8.02;;
23868;SDS011;12115;47.128;15.422;2022-11-03T03:52:21;11.77;;;8.18;;
23868;SDS011;12115;47.128;15.422;2022-11-03T03:54:48;11.20;;;8.00;;
23868;SDS011;12115;47.128;15.422;2022-11-03T03:57:16;15.23;;;7.53;;
23868;SDS011;12115;47.128;15.422;2022-11-03T03:59:46;14.43;;;8.25;;
23868;SDS011;12115;47.128;15.422;2022-11-03T04:02:13;12.48;;;7.68;;
23868;SDS011;12115;47.128;15.422;2022-11-03T04:04:40;13.30;;;7.78;;
23868;SDS011;12115;47.128;15.422;2022-11-03T04:07:08;12.70;;;8.10;;
23868;SDS011;12115;47.128;15.422;2022-11-03T04:09:54;15.15;;;8.45;;
23868;SDS011;12115;47.128;15.422;2022-11-03T04:12:21;11.50;;;8.40;;
23868;SDS011;12115;47.128;15.422;2022-11-03T04:15:09;12.88;;;8.70;;
23868;SDS011;12115;47.128;15.422;2022-11-03T04:17:56;17.58;;;9.13;;
23868;SDS011;12115;47.128;15.422;2022-11-03T04:20:42;12.38;;;8.52;;
23868;SDS011;12115;47.128;15.422;2022-11-03T04:23:28;12.88;;;8.20;;
23868;SDS011;12115;47.128;15.422;2022-11-03T04:25:55;12.70;;;7.72;;
23868;SDS011;12115;47.128;15.422;2022-11-03T04:28:23;11.77;;;8.15;;
23868;SDS011;12115;47.128;15.422;2022-11-03T04:31:00;15.45;;;9.00;;
23868;SDS011;12115;47.128;15.422;2022-11-03T04:33:27;12.75;;;8.80;;
23868;SDS011;12115;47.128;15.422;2022-11-03T04:35:56;12.73;;;8.43;;
23868;SDS011;12115;47.128;15.422;2022-11-03T04:38:25;11.88;;;8.55;;
23868;SDS011;12115;47.128;15.422;2022-11-03T04:40:54;13.60;;;7.97;;
23868;SDS011;12115;47.128;15.422;2022-11-03T04:43:34;12.52;;;6.82;;
23868;SDS011;12115;47.128;15.422;2022-11-03T04:46:02;16.40;;;8.23;;
23868;SDS011;12115;47.128;15.422;2022-11-03T04:48:30;14.13;;;8.10;;
23868;SDS011;12115;47.128;15.422;2022-11-03T04:50:59;19.17;;;8.55;;
23868;SDS011;12115;47.128;15.422;2022-11-03T04:53:36;13.05;;;7.43;;
23868;SDS011;12115;47.128;15.422;2022-11-03T04:56:07;11.35;;;7.00;;
23868;SDS011;12115;47.128;15.422;2022-11-03T04:58:40;12.93;;;7.18;;
23868;SDS011;12115;47.128;15.422;2022-11-03T05:01:09;12.25;;;6.22;;
23868;SDS011;12115;47.128;15.422;2022-11-03T05:03:39;10.20;;;6.88;;
23868;SDS011;12115;47.128;15.422;2022-11-03T05:06:17;10.02;;;6.85;;
23868;SDS011;12115;47.128;15.422;2022-11-03T05:09:07;13.23;;;7.22;;
23868;SDS011;12115;47.128;15.422;2022-11-03T05:11:45;12.68;;;7.30;;
23868;SDS011;12115;47.128;15.422;2022-11-03T05:14:19;10.40;;;6.87;;
23868;SDS011;12115;47.128;15.422;2022-11-03T05:16:52;9.93;;;6.93;;
23868;SDS011;12115;47.128;15.422;2022-11-03T05:21:48;15.45;;;7.18;;
23868;SDS011;12115;47.128;15.422;2022-11-03T05:24:16;14.70;;;7.50;;
23868;SDS011;12115;47.128;15.422;2022-11-03T05:26:47;9.35;;;6.68;;
23868;SDS011;12115;47.128;15.422;2022-11-03T05:29:16;11.07;;;6.35;;
23868;SDS011;12115;47.128;15.422;2022-11-03T05:37:21;14.63;;;6.82;;
23868;SDS011;12115;47.128;15.422;2022-11-03T05:39:57;11.18;;;6.28;;
23868;SDS011;12115;47.128;15.422;2022-11-03T05:42:43;14.50;;;6.97;;
23868;SDS011;12115;47.128;15.422;2022-11-03T05:47:45;11.70;;;6.45;;
23868;SDS011;12115;47.128;15.422;2022-11-03T05:50:15;12.02;;;6.13;;
23868;SDS011;12115;47.128;15.422;2022-11-03T05:52:44;9.68;;;6.22;;
23868;SDS011;12115;47.128;15.422;2022-11-03T05:55:19;11.60;;;6.18;;
23868;SDS011;12115;47.128;15.422;2022-11-03T05:57:48;8.55;;;5.40;;
23868;SDS011;12115;47.128;15.422;2022-11-03T06:00:58;9.10;;;5.47;;
23868;SDS011;12115;47.128;15.422;2022-11-03T06:03:14;9.35;;;4.80;;
23868;SDS011;12115;47.128;15.422;2022-11-03T06:05:46;8.35;;;5.30;;
23868;SDS011;12115;47.128;15.422;2022-11-03T06:08:14;7.60;;;4.43;;
23868;SDS011;12115;47.128;15.422;2022-11-03T06:10:55;8.25;;;4.88;;
23868;SDS011;12115;47.128;15.422;2022-11-03T06:13:26;8.70;;;5.13;;
23868;SDS011;12115;47.128;15.422;2022-11-03T06:16:02;10.15;;;5.50;;
23868;SDS011;12115;47.128;15.422;2022-11-03T06:18:34;9.50;;;4.93;;
23868;SDS011;12115;47.128;15.422;2022-11-03T06:21:06;7.28;;;4.07;;
23868;SDS011;12115;47.128;15.422;2022-11-03T06:23:44;8.85;;;4.70;;
23868;SDS011;12115;47.128;15.422;2022-11-03T06:26:18;11.38;;;5.22;;
23868;SDS011;12115;47.128;15.422;2022-11-03T06:28:47;8.30;;;5.38;;
23868;SDS011;12115;47.128;15.422;2022-11-03T06:31:20;9.38;;;5.22;;
23868;SDS011;12115;47.128;15.422;2022-11-03T06:33:53;9.40;;;5.07;;
23868;SDS011;12115;47.128;15.422;2022-11-03T06:39:20;10.75;;;5.18;;
23868;SDS011;12115;47.128;15.422;2022-11-03T06:41:49;11.52;;;5.50;;
23868;SDS011;12115;47.128;15.422;2022-11-03T06:44:26;9.73;;;5.25;;
23868;SDS011;12115;47.128;15.422;2022-11-03T06:46:55;7.95;;;4.97;;
23868;SDS011;12115;47.128;15.422;2022-11-03T06:49:28;8.95;;;4.53;;
23868;SDS011;12115;47.128;15.422;2022-11-03T06:52:00;9.65;;;4.63;;
23868;SDS011;12115;47.128;15.422;2022-11-03T06:54:39;7.22;;;3.42;;
23868;SDS011;12115;47.128;15.422;2022-11-03T06:57:11;11.30;;;4.32;;
23868;SDS011;12115;47.128;15.422;2022-11-03T06:59:44;8.02;;;4.20;;
23868;SDS011;12115;47.128;15.422;2022-11-03T07:02:26;7.07;;;3.92;;
23868;SDS011;12115;47.128;15.422;2022-11-03T07:05:20;8.30;;;3.47;;
23868;SDS011;12115;47.128;15.422;2022-11-03T07:07:57;7.03;;;3.22;;
23868;SDS011;12115;47.128;15.422;2022-11-03T07:10:30;8.82;;;3.72;;
23868;SDS011;12115;47.128;15.422;2022-11-03T07:13:08;9.60;;;3.95;;
23868;SDS011;12115;47.128;15.422;2022-11-03T07:15:41;8.07;;;3.78;;
23868;SDS011;12115;47.128;15.422;2022-11-03T07:18:23;9.93;;;3.95;;
23868;SDS011;12115;47.128;15.422;2022-11-03T07:20:56;6.85;;;3.35;;
23868;SDS011;12115;47.128;15.422;2022-11-03T07:23:29;7.38;;;3.45;;
23868;SDS011;12115;47.128;15.422;2022-11-03T07:25:59;8.95;;;3.15;;
23868;SDS011;12115;47.128;15.422;2022-11-03T07:28:34;7.68;;;3.15;;
23868;SDS011;12115;47.128;15.422;2022-11-03T07:31:13;6.28;;;3.10;;
23868;SDS011;12115;47.128;15.422;2022-11-03T07:33:59;7.20;;;3.20;;
23868;SDS011;12115;47.128;15.422;2022-11-03T07:36:29;5.50;;;3.22;;
23868;SDS011;12115;47.128;15.422;2022-11-03T07:38:58;6.78;;;3.20;;
23868;SDS011;12115;47.128;15.422;2022-11-03T07:41:30;6.50;;;2.83;;
23868;SDS011;12115;47.128;15.422;2022-11-03T07:44:01;7.45;;;3.20;;
23868;SDS011;12115;47.128;15.422;2022-11-03T07:46:40;9.63;;;3.03;;
23868;SDS011;12115;47.128;15.422;2022-11-03T07:49:25;8.10;;;3.22;;
23868;SDS011;12115;47.128;15.422;2022-11-03T07:51:58;4.78;;;2.70;;
23868;SDS011;12115;47.128;15.422;2022-11-03T07:54:29;5.60;;;2.40;;
23868;SDS011;12115;47.128;15.422;2022-11-03T07:57:18;6.75;;;2.70;;
23868;SDS011;12115;47.128;15.422;2022-11-03T08:00:03;8.48;;;3.03;;
23868;SDS011;12115;47.128;15.422;2022-11-03T08:02:50;7.43;;;2.88;;
23868;SDS011;12115;47.128;15.422;2022-11-03T08:05:27;9.80;;;2.72;;
23868;SDS011;12115;47.128;15.422;2022-11-03T08:07:54;7.15;;;2.30;;
23868;SDS011;12115;47.128;15.422;2022-11-03T08:10:21;8.80;;;2.63;;
23868;SDS011;12115;47.128;15.422;2022-11-03T08:12:48;6.78;;;2.80;;
23868;SDS011;12115;47.128;15.422;2022-11-03T08:15:15;5.70;;;2.50;;
23868;SDS011;12115;47.128;15.422;2022-11-03T08:17:43;6.90;;;2.47;;
23868;SDS011;12115;47.128;15.422;2022-11-03T08:20:10;8.77;;;3.10;;
23868;SDS011;12115;47.128;15.422;2022-11-03T08:22:37;6.32;;;3.17;;
23868;SDS011;12115;47.128;15.422;2022-11-03T08:25:04;7.97;;;3.22;;
23868;SDS011;12115;47.128;15.422;2022-11-03T08:27:32;5.78;;;2.40;;
23868;SDS011;12115;47.128;15.422;2022-11-03T08:29:59;7.22;;;2.88;;
23868;SDS011;12115;47.128;15.422;2022-11-03T08:32:26;7.28;;;2.95;;
23868;SDS011;12115;47.128;15.422;2022-11-03T08:34:53;8.57;;;2.60;;
23868;SDS011;12115;47.128;15.422;2022-11-03T08:37:20;8.30;;;3.08;;
23868;SDS011;12115;47.128;15.422;2022-11-03T08:39:47;6.65;;;2.35;;
23868;SDS011;12115;47.128;15.422;2022-11-03T08:42:14;7.78;;;2.58;;
23868;SDS011;12115;47.128;15.422;2022-11-03T08:44:41;6.88;;;2.83;;
23868;SDS011;12115;47.128;15.422;2022-11-03T08:47:08;5.35;;;2.60;;
23868;SDS011;12115;47.128;15.422;2022-11-03T08:49:35;8.85;;;2.88;;
23868;SDS011;12115;47.128;15.422;2022-11-03T08:52:02;6.18;;;2.92;;
23868;SDS011;12115;47.128;15.422;2022-11-03T08:54:29;8.98;;;2.63;;
23868;SDS011;12115;47.128;15.422;2022-11-03T08:56:56;8.43;;;3.25;;
23868;SDS011;12115;47.128;15.422;2022-11-03T08:59:23;5.85;;;3.20;;
23868;SDS011;12115;47.128;15.422;2022-11-03T09:01:50;7.22;;;2.95;;
23868;SDS011;12115;47.128;15.422;2022-11-03T09:04:17;8.00;;;2.58;;
23868;SDS011;12115;47.128;15.422;2022-11-03T09:06:44;8.35;;;3.53;;
23868;SDS011;12115;47.128;15.422;2022-11-03T09:09:11;8.13;;;3.05;;
23868;SDS011;12115;47.128;15.422;2022-11-03T09:11:58;6.47;;;3.13;;
23868;SDS011;12115;47.128;15.422;2022-11-03T09:14:26;11.60;;;3.50;;
23868;SDS011;12115;47.128;15.422;2022-11-03T09:16:53;5.60;;;2.72;;
23868;SDS011;12115;47.128;15.422;2022-11-03T09:19:20;8.75;;;2.88;;
23868;SDS011;12115;47.128;15.422;2022-11-03T09:21:47;6.78;;;3.22;;
23868;SDS011;12115;47.128;15.422;2022-11-03T09:24:14;6.35;;;2.60;;
23868;SDS011;12115;47.128;15.422;2022-11-03T09:26:41;7.45;;;3.33;;
23868;SDS011;12115;47.128;15.422;2022-11-03T09:29:08;8.02;;;2.90;;
23868;SDS011;12115;47.128;15.422;2022-11-03T09:31:35;11.27;;;3.10;;
23868;SDS011;12115;47.128;15.422;2022-11-03T09:34:02;5.28;;;2.70;;
23868;SDS011;12115;47.128;15.422;2022-11-03T09:36:29;7.03;;;2.92;;
23868;SDS011;12115;47.128;15.422;2022-11-03T09:38:56;6.97;;;3.25;;
23868;SDS011;12115;47.128;15.422;2022-11-03T09:41:29;6.85;;;2.70;;
23868;SDS011;12115;47.128;15.422;2022-11-03T09:47:08;9.52;;;2.72;;
23868;SDS011;12115;47.128;15.422;2022-11-03T09:49:58;6.10;;;2.85;;
23868;SDS011;12115;47.128;15.422;2022-11-03T09:52:28;5.65;;;2.97;;
23868;SDS011;12115;47.128;15.422;2022-11-03T09:55:10;7.15;;;2.65;;
23868;SDS011;12115;47.128;15.422;2022-11-03T09:57:48;5.68;;;2.40;;
23868;SDS011;12115;47.128;15.422;2022-11-03T10:00:37;7.18;;;2.90;;
23868;SDS011;12115;47.128;15.422;2022-11-03T10:03:04;12.05;;;2.78;;
23868;SDS011;12115;47.128;15.422;2022-11-03T10:05:31;5.97;;;2.67;;
23868;SDS011;12115;47.128;15.422;2022-11-03T10:08:04;7.93;;;3.20;;
23868;SDS011;12115;47.128;15.422;2022-11-03T10:10:33;6.38;;;3.08;;
23868;SDS011;12115;47.128;15.422;2022-11-03T10:13:00;9.68;;;3.08;;
23868;SDS011;12115;47.128;15.422;2022-11-03T10:15:28;11.02;;;3.05;;
23868;SDS011;12115;47.128;15.422;2022-11-03T10:17:56;6.70;;;2.95;;
23868;SDS011;12115;47.128;15.422;2022-11-03T10:20:23;10.57;;;3.03;;
23868;SDS011;12115;47.128;15.422;2022-11-03T10:22:51;7.07;;;3.20;;
23868;SDS011;12115;47.128;15.422;2022-11-03T10:28:25;10.27;;;3.10;;
23868;SDS011;12115;47.128;15.422;2022-11-03T10:30:55;10.68;;;3.20;;
23868;SDS011;12115;47.128;15.422;2022-11-03T10:34:00;8.95;;;2.75;;
23868;SDS011;12115;47.128;15.422;2022-11-03T10:36:27;5.32;;;2.45;;
23868;SDS011;12115;47.128;15.422;2022-11-03T10:38:56;6.63;;;2.97;;
23868;SDS011;12115;47.128;15.422;2022-11-03T10:41:24;5.90;;;3.03;;
23868;SDS011;12115;47.128;15.422;2022-11-03T10:46:33;5.40;;;2.75;;
23868;SDS011;12115;47.128;15.422;2022-11-03T10:49:17;5.35;;;3.03;;
23868;SDS011;12115;47.128;15.422;2022-11-03T10:51:46;7.15;;;3.15;;
23868;SDS011;12115;47.128;15.422;2022-11-03T10:54:15;7.60;;;3.30;;
23868;SDS011;12115;47.128;15.422;2022-11-03T10:56:44;9.35;;;2.97;;
23868;SDS011;12115;47.128;15.422;2022-11-03T10:59:23;7.88;;;2.95;;
23868;SDS011;12115;47.128;15.422;2022-11-03T11:01:57;10.73;;;3.30;;
23868;SDS011;12115;47.128;15.422;2022-11-03T11:04:26;7.45;;;3.20;;
23868;SDS011;12115;47.128;15.422;2022-11-03T11:06:53;6.10;;;2.90;;
23868;SDS011;12115;47.128;15.422;2022-11-03T11:09:24;5.93;;;2.72;;
23868;SDS011;12115;47.128;15.422;2022-11-03T11:12:05;10.00;;;3.22;;
23868;SDS011;12115;47.128;15.422;2022-11-03T11:14:57;7.50;;;2.58;;
23868;SDS011;12115;47.128;15.422;2022-11-03T11:22:47;7.35;;;3.03;;
23868;SDS011;12115;47.128;15.422;2022-11-03T11:25:18;6.35;;;3.22;;
23868;SDS011;12115;47.128;15.422;2022-11-03T11:33:00;7.88;;;3.30;;
23868;SDS011;12115;47.128;15.422;2022-11-03T11:41:39;8.23;;;3.33;;
23868;SDS011;12115;47.128;15.422;2022-11-03T11:47:29;8.35;;;3.55;;
23868;SDS011;12115;47.128;15.422;2022-11-03T11:53:03;8.05;;;3.08;;
23868;SDS011;12115;47.128;15.422;2022-11-03T11:55:41;8.27;;;3.28;;
23868;SDS011;12115;47.128;15.422;2022-11-03T11:58:31;8.57;;;3.33;;
23868;SDS011;12115;47.128;15.422;2022-11-03T12:01:03;9.85;;;3.47;;
23868;SDS011;12115;47.128;15.422;2022-11-03T12:03:53;7.22;;;3.60;;
23868;SDS011;12115;47.128;15.422;2022-11-03T12:06:32;6.97;;;3.20;;
23868;SDS011;12115;47.128;15.422;2022-11-03T12:09:07;9.65;;;3.42;;
23868;SDS011;12115;47.128;15.422;2022-11-03T12:11:39;8.93;;;3.90;;
23868;SDS011;12115;47.128;15.422;2022-11-03T12:14:36;9.13;;;3.70;;
23868;SDS011;12115;47.128;15.422;2022-11-03T12:19:56;6.65;;;3.42;;
23868;SDS011;12115;47.128;15.422;2022-11-03T12:24:54;10.63;;;3.08;;
23868;SDS011;12115;47.128;15.422;2022-11-03T12:29:57;5.40;;;2.92;;
23868;SDS011;12115;47.128;15.422;2022-11-03T12:32:38;7.65;;;3.28;;
23868;SDS011;12115;47.128;15.422;2022-11-03T12:35:07;6.40;;;3.22;;
23868;SDS011;12115;47.128;15.422;2022-11-03T12:37:41;10.18;;;3.90;;
23868;SDS011;12115;47.128;15.422;2022-11-03T12:40:09;6.57;;;3.55;;
23868;SDS011;12115;47.128;15.422;2022-11-03T12:42:38;6.95;;;3.75;;
23868;SDS011;12115;47.128;15.422;2022-11-03T12:45:05;8.40;;;3.60;;
23868;SDS011;12115;47.128;15.422;2022-11-03T12:47:33;7.68;;;3.40;;
23868;SDS011;12115;47.128;15.422;2022-11-03T12:50:00;7.63;;;3.25;;
23868;SDS011;12115;47.128;15.422;2022-11-03T12:52:27;7.57;;;3.33;;
23868;SDS011;12115;47.128;15.422;2022-11-03T12:54:54;8.10;;;4.03;;
23868;SDS011;12115;47.128;15.422;2022-11-03T12:57:22;7.38;;;3.20;;
23868;SDS011;12115;47.128;15.422;2022-11-03T12:59:50;11.23;;;3.50;;
23868;SDS011;12115;47.128;15.422;2022-11-03T13:02:17;11.23;;;3.80;;
23868;SDS011;12115;47.128;15.422;2022-11-03T13:04:45;9.07;;;3.78;;
23868;SDS011;12115;47.128;15.422;2022-11-03T13:07:11;7.95;;;3.28;;
23868;SDS011;12115;47.128;15.422;2022-11-03T13:09:38;9.00;;;3.40;;
23868;SDS011;12115;47.128;15.422;2022-11-03T13:12:06;8.73;;;3.67;;
23868;SDS011;12115;47.128;15.422;2022-11-03T13:14:56;8.57;;;3.90;;
23868;SDS011;12115;47.128;15.422;2022-11-03T13:17:24;5.57;;;3.00;;
23868;SDS011;12115;47.128;15.422;2022-11-03T13:20:01;6.10;;;3.72;;
23868;SDS011;12115;47.128;15.422;2022-11-03T13:22:28;8.07;;;4.00;;
23868;SDS011;12115;47.128;15.422;2022-11-03T13:24:55;7.90;;;3.60;;
23868;SDS011;12115;47.128;15.422;2022-11-03T13:27:22;7.95;;;3.70;;
23868;SDS011;12115;47.128;15.422;2022-11-03T13:29:49;10.43;;;4.18;;
23868;SDS011;12115;47.128;15.422;2022-11-03T13:32:16;8.77;;;3.42;;
23868;SDS011;12115;47.128;15.422;2022-11-03T13:34:43;7.93;;;3.80;;
23868;SDS011;12115;47.128;15.422;2022-11-03T13:37:10;9.45;;;3.70;;
23868;SDS011;12115;47.128;15.422;2022-11-03T13:39:37;10.32;;;4.07;;
23868;SDS011;12115;47.128;15.422;2022-11-03T13:42:04;13.93;;;6.05;;
23868;SDS011;12115;47.128;15.422;2022-11-03T13:44:31;4.90;;;3.58;;
23868;SDS011;12115;47.128;15.422;2022-11-03T13:46:58;7.82;;;3.67;;
23868;SDS011;12115;47.128;15.422;2022-11-03T13:49:25;11.50;;;4.25;;
23868;SDS011;12115;47.128;15.422;2022-11-03T13:52:12;7.20;;;3.67;;
23868;SDS011;12115;47.128;15.422;2022-11-03T13:54:39;10.15;;;4.22;;
23868;SDS011;12115;47.128;15.422;2022-11-03T13:57:26;7.10;;;3.42;;
23868;SDS011;12115;47.128;15.422;2022-11-03T14:00:13;7.18;;;3.72;;
23868;SDS011;12115;47.128;15.422;2022-11-03T14:02:42;8.77;;;3.85;;
23868;SDS011;12115;47.128;15.422;2022-11-03T14:05:29;8.50;;;4.20;;
23868;SDS011;12115;47.128;15.422;2022-11-03T14:07:56;8.05;;;3.85;;
23868;SDS011;12115;47.128;15.422;2022-11-03T14:10:23;8.60;;;4.20;;
23868;SDS011;12115;47.128;15.422;2022-11-03T14:12:50;12.23;;;4.32;;
23868;SDS011;12115;47.128;15.422;2022-11-03T14:15:17;10.05;;;3.97;;
23868;SDS011;12115;47.128;15.422;2022-11-03T14:17:44;10.38;;;3.78;;
23868;SDS011;12115;47.128;15.422;2022-11-03T14:20:11;9.27;;;4.35;;
23868;SDS011;12115;47.128;15.422;2022-11-03T14:22:39;9.48;;;4.57;;
23868;SDS011;12115;47.128;15.422;2022-11-03T14:25:06;8.13;;;4.40;;
23868;SDS011;12115;47.128;15.422;2022-11-03T14:27:37;9.20;;;4.38;;
23868;SDS011;12115;47.128;15.422;2022-11-03T14:32:38;12.90;;;4.38;;
23868;SDS011;12115;47.128;15.422;2022-11-03T14:35:10;8.65;;;4.30;;
23868;SDS011;12115;47.128;15.422;2022-11-03T14:37:39;9.82;;;4.10;;
23868;SDS011;12115;47.128;15.422;2022-11-03T14:40:07;7.18;;;4.43;;
23868;SDS011;12115;47.128;15.422;2022-11-03T14:42:58;10.02;;;4.75;;
23868;SDS011;12115;47.128;15.422;2022-11-03T14:45:34;8.07;;;4.15;;
23868;SDS011;12115;47.128;15.422;2022-11-03T14:48:10;11.48;;;4.30;;
23868;SDS011;12115;47.128;15.422;2022-11-03T14:50:39;7.93;;;4.85;;
23868;SDS011;12115;47.128;15.422;2022-11-03T14:53:10;8.15;;;4.75;;
23868;SDS011;12115;47.128;15.422;2022-11-03T14:55:37;7.07;;;4.20;;
23868;SDS011;12115;47.128;15.422;2022-11-03T14:58:11;9.43;;;4.55;;
23868;SDS011;12115;47.128;15.422;2022-11-03T15:00:47;11.30;;;4.32;;
23868;SDS011;12115;47.128;15.422;2022-11-03T15:03:20;13.32;;;4.85;;
23868;SDS011;12115;47.128;15.422;2022-11-03T15:05:49;11.55;;;4.43;;
23868;SDS011;12115;47.128;15.422;2022-11-03T15:08:26;5.82;;;3.95;;
23868;SDS011;12115;47.128;15.422;2022-11-03T15:11:02;11.73;;;4.53;;
23868;SDS011;12115;47.128;15.422;2022-11-03T15:13:33;7.13;;;4.32;;
23868;SDS011;12115;47.128;15.422;2022-11-03T15:16:13;7.75;;;4.07;;
23868;SDS011;12115;47.128;15.422;2022-11-03T15:18:45;11.30;;;4.22;;
23868;SDS011;12115;47.128;15.422;2022-11-03T15:21:17;8.27;;;4.53;;
23868;SDS011;12115;47.128;15.422;2022-11-03T15:23:51;11.52;;;3.90;;
23868;SDS011;12115;47.128;15.422;2022-11-03T15:26:52;8.07;;;4.18;;
23868;SDS011;12115;47.128;15.422;2022-11-03T15:32:02;10.05;;;4.45;;
23868;SDS011;12115;47.128;15.422;2022-11-03T15:34:31;7.22;;;4.50;;
23868;SDS011;12115;47.128;15.422;2022-11-03T15:37:05;9.02;;;4.82;;
23868;SDS011;12115;47.128;15.422;2022-11-03T15:39:34;9.57;;;5.05;;
23868;SDS011;12115;47.128;15.422;2022-11-03T15:42:05;11.82;;;4.78;;
23868;SDS011;12115;47.128;15.422;2022-11-03T15:44:32;8.85;;;4.85;;
23868;SDS011;12115;47.128;15.422;2022-11-03T15:47:05;7.88;;;5.13;;
23868;SDS011;12115;47.128;15.422;2022-11-03T15:49:32;7.65;;;4.80;;
23868;SDS011;12115;47.128;15.422;2022-11-03T15:52:04;9.02;;;5.50;;
23868;SDS011;12115;47.128;15.422;2022-11-03T15:54:33;8.50;;;4.72;;
23868;SDS011;12115;47.128;15.422;2022-11-03T15:57:07;10.05;;;5.30;;
23868;SDS011;12115;47.128;15.422;2022-11-03T15:59:35;12.05;;;5.95;;
23868;SDS011;12115;47.128;15.422;2022-11-03T16:02:11;10.63;;;5.82;;
23868;SDS011;12115;47.128;15.422;2022-11-03T16:05:02;11.43;;;6.15;;
23868;SDS011;12115;47.128;15.422;2022-11-03T16:07:32;9.50;;;5.40;;
23868;SDS011;12115;47.128;15.422;2022-11-03T16:09:59;9.52;;;5.28;;
23868;SDS011;12115;47.128;15.422;2022-11-03T16:12:32;8.02;;;5.07;;
23868;SDS011;12115;47.128;15.422;2022-11-03T16:15:02;7.65;;;4.65;;
23868;SDS011;12115;47.128;15.422;2022-11-03T16:17:32;11.73;;;5.05;;